createdAt,value
2023-01-17T00:01:34.257Z,3.50
2023-01-17T00:16:24.110Z,3.30
2023-01-17T00:31:24.258Z,4.00
2023-01-17T00:46:24.718Z,3.70
2023-01-17T01:01:24.374Z,3.70
2023-01-17T01:16:24.529Z,3.72
2023-01-17T01:31:24.502Z,3.65
2023-01-17T01:46:24.493Z,3.25
2023-01-17T02:01:24.676Z,3.08
2023-01-17T02:16:24.778Z,3.10
2023-01-17T02:31:24.849Z,2.95
2023-01-17T02:46:24.892Z,2.97
2023-01-17T03:01:24.945Z,3.05
2023-01-17T03:16:25.038Z,3.07
2023-01-17T03:31:24.911Z,2.50
2023-01-17T03:46:24.830Z,2.20
2023-01-17T04:01:24.910Z,2.10
2023-01-17T04:16:24.877Z,2.30
2023-01-17T04:31:25.933Z,3.00
2023-01-17T04:46:25.316Z,2.93
2023-01-17T05:01:34.202Z,3.05
2023-01-17T05:16:24.151Z,3.17
2023-01-17T05:31:24.492Z,3.00
2023-01-17T05:46:24.999Z,2.80
2023-01-17T06:01:24.487Z,2.67
2023-01-17T06:16:25.977Z,2.67
2023-01-17T06:31:26.580Z,2.50
2023-01-17T06:46:24.796Z,2.42
2023-01-17T07:01:24.465Z,2.38
2023-01-17T07:15:23.682Z,2.17
2023-01-17T07:30:23.920Z,2.23
2023-01-17T07:45:23.575Z,2.20
2023-01-17T08:00:26.381Z,1.88
2023-01-17T08:15:24.353Z,2.37
2023-01-17T08:30:24.231Z,2.30
2023-01-17T08:45:24.485Z,2.42
2023-01-17T09:00:28.156Z,2.53
2023-01-17T09:15:24.267Z,2.47
2023-01-17T09:30:24.634Z,2.67
2023-01-17T09:45:33.685Z,2.72
2023-01-17T10:00:38.785Z,3.23
2023-01-17T10:15:23.696Z,3.38
2023-01-17T10:30:23.284Z,3.47
2023-01-17T10:45:23.928Z,3.62
2023-01-17T11:00:28.827Z,3.83
2023-01-17T11:15:24.143Z,3.75
2023-01-17T11:30:23.858Z,3.85
2023-01-17T11:45:33.571Z,4.07
2023-01-17T12:00:36.692Z,4.22
2023-01-17T12:15:23.250Z,4.38
2023-01-17T12:30:23.822Z,4.45
2023-01-17T12:45:23.247Z,4.45
2023-01-17T13:00:29.887Z,4.50
2023-01-17T13:15:23.463Z,4.50
2023-01-17T13:30:24.659Z,4.38
2023-01-17T13:45:23.583Z,4.45
2023-01-17T14:00:32.180Z,4.43
2023-01-17T14:15:23.546Z,4.35
2023-01-17T14:30:24.212Z,4.28
2023-01-17T14:45:24.263Z,3.60
2023-01-17T15:00:38.824Z,3.50
2023-01-17T15:15:24.564Z,4.05
2023-01-17T15:30:24.207Z,4.20
2023-01-17T15:46:40.739Z,4.00
2023-01-17T16:01:26.641Z,4.03
2023-01-17T16:16:25.629Z,3.90
2023-01-17T16:31:25.418Z,3.72
2023-01-17T16:46:33.931Z,3.38
2023-01-17T17:01:34.004Z,3.25
2023-01-17T17:16:24.362Z,3.17
2023-01-17T17:31:24.719Z,2.80
2023-01-17T17:46:24.368Z,2.80
2023-01-17T18:01:24.451Z,2.80
2023-01-17T18:16:24.234Z,1.80
2023-01-17T18:31:24.576Z,2.00
2023-01-17T18:46:24.570Z,2.00
2023-01-17T19:01:25.089Z,2.70
2023-01-17T19:16:24.486Z,2.70
2023-01-17T19:31:31.345Z,2.70
2023-01-17T19:46:24.795Z,2.65
2023-01-17T20:01:24.752Z,2.83
2023-01-17T20:16:26.426Z,2.75
2023-01-17T20:31:24.867Z,2.67
2023-01-17T20:46:24.863Z,2.30
2023-01-17T21:01:24.960Z,1.60
2023-01-17T21:16:25.032Z,1.60
2023-01-17T21:31:25.516Z,1.50
2023-01-17T21:46:34.138Z,2.12
2023-01-17T22:01:34.889Z,2.12
2023-01-17T22:16:24.114Z,2.08
2023-01-17T22:31:24.208Z,2.15
2023-01-17T22:46:24.003Z,2.15
2023-01-17T23:01:39.700Z,4.50
2023-01-17T23:16:24.961Z,2.05
2023-01-17T23:31:25.688Z,1.92
2023-01-17T23:46:25.015Z,1.75
